Time;durP1;ratioP1;P1;durP2;ratioP2;P2;SDS_P1;SDS_P2;PMS_P1;PMS_P2;Temp;Humidity;BMP_temperature;BMP_pressure;BME280_temperature;BME280_humidity;BME280_pressure;Samples;Min_cycle;Max_cycle;Signal;HPM_P1;HPM_P2
2022/03/27 00:00:06;;;;;;;21.63;7.65;;;13.30;57.10;;;;;;5110969;28;20031;-74
2022/03/27 00:02:31;;;;;;;18.10;8.27;;;13.30;57.10;;;;;;5111097;28;20360;-76
2022/03/27 00:04:57;;;;;;;27.05;7.50;;;13.30;57.20;;;;;;5116022;27;20027;-74
2022/03/27 00:07:23;;;;;;;21.88;7.55;;;13.30;57.20;;;;;;5131515;27;20372;-75
2022/03/27 00:09:48;;;;;;;32.28;7.35;;;13.30;57.80;;;;;;5124019;27;20086;-77
2022/03/27 00:12:14;;;;;;;23.15;7.07;;;13.30;57.20;;;;;;5072123;28;20017;-74
2022/03/27 00:14:39;;;;;;;26.20;7.72;;;13.30;57.20;;;;;;5086076;28;20023;-74
2022/03/27 00:17:05;;;;;;;25.83;8.25;;;13.30;57.20;;;;;;5110728;28;20039;-74
2022/03/27 00:27:17;;;;;;;19.63;6.13;;;13.30;57.20;;;;;;5094606;28;20048;-72
2022/03/27 00:56:59;;;;;;;30.33;6.88;;;13.20;57.30;;;;;;5003952;28;20048;-72
2022/03/27 00:59:25;;;;;;;18.30;7.32;;;13.20;57.30;;;;;;5005570;28;20030;-72
2022/03/27 01:01:50;;;;;;;21.05;6.97;;;13.20;57.40;;;;;;5005029;28;20418;-72
2022/03/27 01:04:16;;;;;;;26.65;8.63;;;13.20;57.90;;;;;;5005665;28;20030;-72
2022/03/27 01:06:44;;;;;;;29.77;7.72;;;13.20;57.30;;;;;;5013935;28;20494;-72
2022/03/27 01:12:11;;;;;;;20.33;7.32;;;13.20;57.20;;;;;;5025199;28;20509;-73
2022/03/27 01:14:36;;;;;;;35.22;6.95;;;13.20;57.20;;;;;;5026620;28;20493;-72
2022/03/27 01:17:08;;;;;;;19.85;7.50;;;13.20;57.20;;;;;;5027165;28;20037;-72
2022/03/27 01:19:38;;;;;;;28.48;6.82;;;13.20;57.20;;;;;;5012087;28;20029;-72
2022/03/27 01:22:04;;;;;;;25.35;7.78;;;13.20;57.20;;;;;;5025463;28;20028;-72
2022/03/27 01:24:29;;;;;;;20.33;7.78;;;13.20;57.30;;;;;;5026491;28;20474;-72
2022/03/27 01:26:55;;;;;;;18.77;7.47;;;13.10;57.20;;;;;;5025263;28;20029;-73
2022/03/27 01:29:21;;;;;;;21.17;7.55;;;13.20;57.30;;;;;;5035671;28;20054;-72
2022/03/27 01:31:47;;;;;;;28.73;7.50;;;13.20;57.30;;;;;;5078745;28;20035;-72
2022/03/27 01:34:13;;;;;;;21.70;6.80;;;13.20;57.30;;;;;;5081052;28;20031;-72
2022/03/27 01:36:39;;;;;;;26.63;8.05;;;13.10;57.30;;;;;;5074425;28;20462;-73
2022/03/27 01:39:07;;;;;;;29.65;8.13;;;13.10;57.40;;;;;;5081398;28;20099;-72
2022/03/27 01:41:34;;;;;;;30.35;7.93;;;13.10;57.40;;;;;;5077996;28;20035;-72
2022/03/27 01:44:01;;;;;;;28.00;9.50;;;13.10;57.40;;;;;;5077135;28;20153;-72
2022/03/27 01:46:35;;;;;;;25.08;8.00;;;13.10;57.50;;;;;;5087256;28;20039;-72
2022/03/27 01:49:02;;;;;;;23.92;8.63;;;13.10;57.50;;;;;;5063390;28;20021;-73
2022/03/27 01:51:29;;;;;;;28.05;7.45;;;13.10;57.60;;;;;;5088612;28;20028;-72
2022/03/27 01:53:55;;;;;;;28.95;8.20;;;13.10;57.60;;;;;;5079814;28;20314;-73
2022/03/27 01:56:21;;;;;;;20.75;7.50;;;13.10;57.60;;;;;;5084582;28;20028;-72
2022/03/27 01:58:47;;;;;;;23.45;7.30;;;13.10;57.60;;;;;;5072872;28;20016;-72
2022/03/27 02:01:12;;;;;;;26.80;8.55;;;13.10;57.60;;;;;;5085791;28;20044;-73
2022/03/27 02:03:38;;;;;;;26.38;8.05;;;13.00;57.60;;;;;;5084550;28;20032;-73
2022/03/27 02:06:05;;;;;;;17.77;7.30;;;13.10;57.60;;;;;;5077080;28;20386;-72
2022/03/27 02:08:35;;;;;;;23.52;7.43;;;13.10;57.60;;;;;;5072032;28;20112;-72
2022/03/27 02:11:02;;;;;;;32.22;8.35;;;13.00;57.60;;;;;;5078660;28;20526;-72
2022/03/27 02:13:29;;;;;;;25.92;8.45;;;13.10;57.70;;;;;;5076500;28;20485;-72
2022/03/27 02:15:57;;;;;;;26.67;7.95;;;13.10;57.90;;;;;;5072596;28;20029;-73
2022/03/27 02:18:26;;;;;;;25.02;7.88;;;13.10;57.90;;;;;;5080945;28;20469;-72
2022/03/27 02:20:52;;;;;;;21.60;7.40;;;13.10;57.90;;;;;;5085761;28;20039;-72
2022/03/27 02:23:17;;;;;;;23.17;7.80;;;13.10;57.90;;;;;;5079712;28;20028;-72
2022/03/27 02:25:43;;;;;;;17.15;7.50;;;13.10;58.00;;;;;;5085159;28;20027;-72
2022/03/27 02:28:09;;;;;;;27.63;8.30;;;13.00;58.10;;;;;;5090873;28;20020;-72
2022/03/27 02:30:36;;;;;;;21.00;7.00;;;13.00;58.10;;;;;;5065719;28;20042;-72
2022/03/27 02:33:02;;;;;;;18.92;7.63;;;13.10;58.10;;;;;;5085225;28;20540;-73
2022/03/27 02:35:28;;;;;;;28.00;7.90;;;13.10;58.10;;;;;;5079643;28;20048;-72
2022/03/27 02:37:53;;;;;;;21.70;7.88;;;13.00;58.00;;;;;;5083730;28;20070;-72
2022/03/27 02:40:19;;;;;;;29.98;8.05;;;13.00;58.00;;;;;;5089614;28;20074;-72
2022/03/27 02:42:45;;;;;;;27.52;7.60;;;13.00;58.10;;;;;;5072282;28;20396;-72
2022/03/27 02:45:10;;;;;;;25.70;8.55;;;13.00;58.10;;;;;;5076136;28;20025;-72
2022/03/27 02:47:37;;;;;;;18.27;7.18;;;13.00;58.10;;;;;;5083438;28;20024;-73
2022/03/27 02:50:07;;;;;;;25.15;7.78;;;13.00;58.20;;;;;;5083544;28;20020;-72
2022/03/27 02:52:33;;;;;;;24.00;7.35;;;13.00;58.00;;;;;;5072914;28;20032;-73
2022/03/27 02:54:59;;;;;;;19.27;7.50;;;13.00;58.10;;;;;;5087939;28;20603;-72
2022/03/27 02:57:25;;;;;;;26.52;8.05;;;13.00;58.10;;;;;;5071940;28;20044;-72
2022/03/27 02:59:52;;;;;;;18.65;7.72;;;13.00;58.10;;;;;;5071747;28;20541;-73
2022/03/27 03:02:19;;;;;;;22.02;8.15;;;13.00;58.20;;;;;;5081635;28;20032;-72
2022/03/27 03:04:44;;;;;;;24.20;7.60;;;13.00;58.20;;;;;;5093559;28;20155;-73
2022/03/27 03:07:10;;;;;;;23.75;7.70;;;13.00;58.20;;;;;;5065534;28;20111;-72
2022/03/27 03:09:36;;;;;;;24.00;6.82;;;13.00;58.20;;;;;;5079151;28;20509;-72
2022/03/27 03:12:02;;;;;;;21.90;7.15;;;13.00;58.50;;;;;;5079824;28;20024;-73
2022/03/27 03:14:27;;;;;;;24.30;7.85;;;13.00;58.50;;;;;;5099639;28;20153;-73
2022/03/27 03:16:53;;;;;;;23.63;8.40;;;13.00;58.40;;;;;;5077944;28;20032;-73
2022/03/27 03:19:19;;;;;;;19.50;7.70;;;13.00;58.30;;;;;;5082274;28;20043;-72
2022/03/27 03:21:45;;;;;;;28.70;7.90;;;13.00;58.60;;;;;;5063809;28;20031;-73
2022/03/27 03:24:10;;;;;;;15.00;7.47;;;13.00;58.40;;;;;;5060851;28;20017;-73
2022/03/27 03:26:36;;;;;;;26.05;8.15;;;13.00;58.40;;;;;;5083752;28;20538;-72
2022/03/27 03:29:02;;;;;;;22.85;7.18;;;13.00;58.50;;;;;;5078953;28;20035;-73
2022/03/27 03:31:28;;;;;;;23.02;8.77;;;13.00;59.00;;;;;;5079178;28;20103;-73
2022/03/27 03:33:54;;;;;;;20.00;7.80;;;12.90;58.50;;;;;;5081154;28;20077;-73
2022/03/27 03:36:19;;;;;;;22.58;7.20;;;13.00;58.50;;;;;;5079405;28;20033;-72
2022/03/27 03:38:45;;;;;;;18.98;7.10;;;12.90;58.50;;;;;;5077937;28;20069;-73
2022/03/27 03:41:11;;;;;;;23.20;8.55;;;12.90;58.50;;;;;;5088443;28;20469;-73
2022/03/27 03:43:37;;;;;;;33.38;8.48;;;12.90;58.50;;;;;;5074217;28;20036;-73
2022/03/27 03:46:06;;;;;;;25.30;7.60;;;13.00;58.50;;;;;;5078264;28;20021;-73
2022/03/27 03:48:32;;;;;;;23.17;7.82;;;12.90;58.50;;;;;;5079492;28;20363;-73
2022/03/27 03:50:58;;;;;;;19.98;8.35;;;12.90;58.50;;;;;;5074272;28;20138;-73
2022/03/27 03:53:24;;;;;;;17.67;7.43;;;12.90;58.50;;;;;;5082291;28;20024;-73
2022/03/27 03:55:50;;;;;;;21.85;7.22;;;12.90;58.50;;;;;;5072998;28;20036;-73
2022/03/27 03:58:16;;;;;;;25.80;7.88;;;12.90;58.60;;;;;;5072921;28;20028;-73
2022/03/27 04:00:42;;;;;;;21.27;7.88;;;12.90;58.60;;;;;;5084635;28;20141;-73
2022/03/27 04:03:09;;;;;;;18.88;8.23;;;12.90;58.70;;;;;;5057140;28;20028;-72
2022/03/27 04:05:35;;;;;;;25.50;7.70;;;12.90;58.70;;;;;;5076759;28;20113;-73
2022/03/27 04:08:01;;;;;;;16.80;7.28;;;12.90;58.80;;;;;;5082704;28;20027;-73
2022/03/27 04:10:27;;;;;;;24.42;8.35;;;12.90;58.80;;;;;;5061543;28;20062;-73
2022/03/27 04:12:53;;;;;;;21.65;7.70;;;12.90;58.80;;;;;;5086238;28;20023;-73
2022/03/27 04:15:19;;;;;;;19.48;7.53;;;12.90;58.70;;;;;;5081556;28;20028;-73
2022/03/27 04:17:46;;;;;;;25.02;7.78;;;12.90;58.80;;;;;;5079379;28;20089;-73
2022/03/27 04:20:12;;;;;;;20.85;7.43;;;12.90;58.80;;;;;;5077568;28;20028;-73
2022/03/27 04:22:42;;;;;;;18.83;7.38;;;12.90;58.80;;;;;;5084345;28;20028;-73
2022/03/27 04:25:09;;;;;;;26.73;8.88;;;12.90;58.80;;;;;;5074833;28;20047;-73
2022/03/27 04:27:35;;;;;;;24.40;7.65;;;12.80;58.80;;;;;;5073638;28;20036;-73
2022/03/27 04:30:09;;;;;;;25.73;7.75;;;12.90;58.80;;;;;;5050739;28;20553;-72
2022/03/27 04:32:36;;;;;;;24.75;7.20;;;12.90;58.90;;;;;;5077383;28;20137;-72
2022/03/27 04:35:02;;;;;;;28.75;8.32;;;12.90;58.90;;;;;;5054777;28;20020;-73
2022/03/27 04:37:28;;;;;;;18.60;8.45;;;12.90;59.00;;;;;;5080614;28;20028;-73
2022/03/27 04:39:59;;;;;;;22.92;8.07;;;12.80;59.00;;;;;;5092567;28;20016;-73
2022/03/27 04:42:26;;;;;;;25.30;8.43;;;12.90;59.10;;;;;;5079075;28;20066;-73
2022/03/27 04:44:52;;;;;;;22.58;7.78;;;12.90;59.00;;;;;;5051233;28;20481;-72
2022/03/27 04:47:17;;;;;;;22.02;8.63;;;12.90;59.10;;;;;;5081423;28;20042;-72
2022/03/27 04:49:43;;;;;;;23.25;8.65;;;12.90;59.20;;;;;;5077284;28;20024;-73
2022/03/27 04:52:09;;;;;;;19.55;7.57;;;12.80;59.10;;;;;;5080813;28;20031;-73
2022/03/27 04:54:34;;;;;;;31.92;7.90;;;12.90;59.40;;;;;;5075231;28;20485;-73
2022/03/27 04:57:00;;;;;;;20.42;8.07;;;12.80;59.20;;;;;;5076535;28;20033;-73
2022/03/27 04:59:26;;;;;;;20.58;7.40;;;12.80;59.20;;;;;;5070124;28;20493;-73
2022/03/27 05:01:51;;;;;;;18.88;7.68;;;12.80;59.20;;;;;;5072993;28;20024;-74
2022/03/27 05:04:17;;;;;;;19.88;7.88;;;12.90;59.50;;;;;;5073790;28;20020;-73
2022/03/27 05:06:43;;;;;;;18.23;7.68;;;12.80;59.80;;;;;;5059919;28;20326;-73
2022/03/27 05:09:09;;;;;;;18.55;8.73;;;12.90;59.60;;;;;;5089645;28;20347;-73
2022/03/27 05:11:34;;;;;;;23.30;8.00;;;12.80;59.60;;;;;;5076399;28;20489;-73
2022/03/27 05:14:00;;;;;;;24.58;8.45;;;12.80;59.50;;;;;;5077717;28;20032;-73
2022/03/27 05:16:25;;;;;;;24.50;7.35;;;12.90;59.70;;;;;;5078206;28;20033;-73
2022/03/27 05:18:51;;;;;;;23.63;8.40;;;12.80;59.70;;;;;;5069024;28;20442;-73
2022/03/27 05:21:17;;;;;;;18.50;8.40;;;12.80;59.70;;;;;;5082272;28;20027;-73
2022/03/27 05:23:45;;;;;;;27.10;9.00;;;12.80;60.00;;;;;;5088735;28;20028;-73
2022/03/27 05:26:11;;;;;;;18.05;7.40;;;12.80;60.50;;;;;;5088862;28;20035;-73
2022/03/27 05:28:36;;;;;;;21.05;7.68;;;12.80;59.80;;;;;;5076244;28;20047;-73
2022/03/27 05:31:08;;;;;;;15.98;7.80;;;12.80;59.70;;;;;;5068837;28;20029;-73
2022/03/27 05:33:33;;;;;;;20.65;8.45;;;12.80;59.70;;;;;;5051090;28;20432;-73
2022/03/27 05:35:59;;;;;;;22.90;8.35;;;12.80;60.00;;;;;;5069519;28;20036;-73
2022/03/27 05:38:25;;;;;;;23.23;8.35;;;12.80;60.10;;;;;;5087917;28;20027;-73
2022/03/27 05:40:53;;;;;;;25.85;8.18;;;12.80;60.10;;;;;;5091094;28;20032;-73
2022/03/27 05:43:19;;;;;;;28.73;8.73;;;12.80;60.10;;;;;;5069504;28;20043;-73
2022/03/27 05:45:44;;;;;;;21.40;8.32;;;12.80;60.10;;;;;;5069827;28;20020;-73
2022/03/27 05:48:12;;;;;;;21.50;8.35;;;12.80;61.10;;;;;;5068826;28;20017;-73
2022/03/27 05:50:40;;;;;;;21.02;8.15;;;12.80;60.70;;;;;;5074934;28;20032;-73
2022/03/27 05:53:06;;;;;;;24.45;9.38;;;12.80;61.80;;;;;;5070521;28;20012;-73
2022/03/27 05:55:32;;;;;;;17.05;7.53;;;12.80;61.10;;;;;;5087893;28;20023;-73
2022/03/27 05:57:59;;;;;;;20.05;8.00;;;12.80;61.90;;;;;;5069670;28;20033;-73
2022/03/27 06:00:26;;;;;;;15.15;7.10;;;12.80;62.30;;;;;;5076528;28;20110;-73
2022/03/27 06:02:52;;;;;;;23.20;8.73;;;12.80;62.70;;;;;;5082767;28;20027;-73
2022/03/27 06:05:22;;;;;;;21.73;8.07;;;12.80;62.80;;;;;;5092450;28;20028;-73
2022/03/27 06:07:53;;;;;;;16.08;7.80;;;12.80;62.90;;;;;;5091934;28;20093;-73
2022/03/27 06:10:31;;;;;;;23.95;8.48;;;12.80;63.50;;;;;;5092878;28;20029;-73
2022/03/27 06:13:05;;;;;;;18.40;7.38;;;12.80;63.50;;;;;;5072106;28;20039;-73
2022/03/27 06:15:32;;;;;;;26.33;9.48;;;12.80;63.50;;;;;;5073941;28;20584;-73
2022/03/27 06:18:01;;;;;;;18.25;7.07;;;12.80;64.40;;;;;;5072864;28;20071;-73
2022/03/27 06:20:29;;;;;;;19.92;8.45;;;12.90;64.00;;;;;;5091427;28;20028;-74
2022/03/27 06:22:55;;;;;;;18.27;7.35;;;12.90;64.10;;;;;;5090969;28;20077;-74
2022/03/27 06:25:26;;;;;;;26.85;8.05;;;12.90;63.60;;;;;;5072721;28;20633;-74
2022/03/27 06:27:53;;;;;;;22.75;8.85;;;13.00;63.60;;;;;;5088017;28;20040;-74
2022/03/27 06:30:21;;;;;;;25.30;8.60;;;13.00;64.00;;;;;;5052492;28;20024;-73
2022/03/27 06:32:47;;;;;;;29.10;8.65;;;13.10;63.50;;;;;;5070974;28;20027;-74
2022/03/27 06:35:15;;;;;;;26.45;8.57;;;13.10;63.40;;;;;;5070613;28;20529;-74
2022/03/27 06:37:42;;;;;;;16.00;7.30;;;13.20;63.80;;;;;;5071310;28;20062;-74
2022/03/27 06:40:10;;;;;;;21.08;7.53;;;13.20;63.90;;;;;;5071569;28;20029;-74
2022/03/27 06:45:58;;;;;;;18.85;7.78;;;13.30;64.30;;;;;;5127164;22;20178;-75
2022/03/27 06:48:24;;;;;;;17.35;7.55;;;13.30;64.80;;;;;;5111852;28;20102;-75
2022/03/27 06:50:50;;;;;;;19.10;7.85;;;13.30;64.60;;;;;;5111601;28;20027;-75
2022/03/27 06:53:20;;;;;;;21.45;6.97;;;13.40;65.10;;;;;;5110743;28;20023;-76
2022/03/27 06:55:46;;;;;;;20.98;8.00;;;13.40;65.80;;;;;;5112126;28;20019;-75
2022/03/27 06:58:12;;;;;;;20.92;7.35;;;13.40;65.30;;;;;;5093299;28;20048;-75
2022/03/27 07:03:22;;;;;;;24.77;8.40;;;13.50;65.60;;;;;;5134062;27;20419;-76
2022/03/27 07:05:48;;;;;;;30.20;7.78;;;13.50;65.90;;;;;;5131627;27;20019;-76
2022/03/27 07:08:16;;;;;;;17.70;7.30;;;13.50;67.00;;;;;;5130885;27;20159;-76
2022/03/27 07:10:44;;;;;;;27.65;9.40;;;13.50;66.80;;;;;;5113200;27;20027;-75
2022/03/27 07:13:11;;;;;;;23.63;8.52;;;13.60;67.60;;;;;;5130076;27;20015;-76
2022/03/27 07:15:38;;;;;;;18.65;7.80;;;13.60;67.50;;;;;;5114770;27;20031;-76
2022/03/27 07:18:05;;;;;;;18.67;8.35;;;13.70;68.40;;;;;;5110852;28;20035;-75
2022/03/27 07:20:32;;;;;;;19.30;7.82;;;13.70;68.10;;;;;;5110605;28;20039;-76
2022/03/27 07:23:01;;;;;;;23.70;8.85;;;13.70;67.50;;;;;;5110869;28;20024;-77
2022/03/27 07:25:28;;;;;;;17.60;8.43;;;13.70;67.10;;;;;;5111861;28;20036;-76
2022/03/27 07:27:54;;;;;;;22.08;8.05;;;13.70;67.10;;;;;;5111380;28;20027;-76
2022/03/27 07:30:20;;;;;;;15.60;7.07;;;13.80;66.40;;;;;;5116487;27;20050;-77
2022/03/27 07:32:47;;;;;;;24.27;8.52;;;13.80;66.40;;;;;;5131629;27;20015;-77
2022/03/27 07:35:15;;;;;;;22.83;8.90;;;13.80;65.90;;;;;;5131513;27;20035;-76
2022/03/27 07:37:41;;;;;;;17.02;8.38;;;13.80;65.90;;;;;;5125494;27;20027;-76
2022/03/27 07:40:09;;;;;;;25.63;8.48;;;13.80;64.30;;;;;;5104362;28;20392;-76
2022/03/27 07:42:40;;;;;;;31.83;8.63;;;13.90;64.80;;;;;;5109474;28;20023;-77
2022/03/27 07:45:06;;;;;;;25.05;8.55;;;13.90;65.10;;;;;;5093849;27;20034;-79
2022/03/27 07:47:33;;;;;;;19.02;8.23;;;13.80;63.10;;;;;;5130561;27;20034;-77
2022/03/27 07:49:59;;;;;;;27.48;8.45;;;13.80;63.30;;;;;;5130318;27;20487;-77
2022/03/27 07:52:26;;;;;;;25.27;8.98;;;13.70;61.90;;;;;;5130279;27;20093;-77
2022/03/27 07:54:51;;;;;;;17.63;8.43;;;13.70;61.40;;;;;;5110092;28;20031;-77
2022/03/27 07:57:17;;;;;;;17.35;7.50;;;13.70;60.60;;;;;;5109915;28;20050;-77
2022/03/27 07:59:43;;;;;;;18.05;8.30;;;13.60;59.90;;;;;;5110349;28;20032;-77
2022/03/27 08:02:09;;;;;;;17.80;8.18;;;13.60;60.30;;;;;;5107469;27;20023;-77
2022/03/27 08:04:34;;;;;;;18.10;8.50;;;13.60;58.90;;;;;;5097836;28;20019;-77
2022/03/27 08:07:01;;;;;;;21.42;8.32;;;13.60;59.50;;;;;;5090383;28;20505;-77
2022/03/27 08:09:27;;;;;;;24.83;9.13;;;13.60;58.80;;;;;;5089203;28;20028;-77
2022/03/27 08:11:55;;;;;;;20.50;9.50;;;13.60;57.90;;;;;;5093614;28;20034;-80
2022/03/27 08:14:21;;;;;;;23.83;8.30;;;13.60;58.70;;;;;;5071593;28;20032;-77
2022/03/27 08:16:46;;;;;;;21.05;9.73;;;13.60;58.20;;;;;;5105790;27;20101;-77
2022/03/27 08:19:12;;;;;;;28.20;10.43;;;13.60;58.20;;;;;;5101159;28;20456;-77
2022/03/27 08:21:39;;;;;;;27.48;9.55;;;13.50;57.70;;;;;;5081492;28;20051;-77
2022/03/27 08:24:05;;;;;;;22.83;7.90;;;13.60;57.50;;;;;;5098654;28;20071;-77
2022/03/27 08:29:15;;;;;;;19.58;8.90;;;13.50;57.20;;;;;;5101363;28;20119;-77
2022/03/27 08:31:41;;;;;;;24.38;8.80;;;13.50;57.60;;;;;;5084043;28;20122;-77
2022/03/27 08:34:07;;;;;;;29.25;8.40;;;13.50;56.70;;;;;;5102218;28;20111;-77
2022/03/27 08:36:33;;;;;;;25.50;9.73;;;13.50;57.10;;;;;;5096776;28;20039;-77
2022/03/27 08:38:59;;;;;;;23.52;10.15;;;13.50;57.00;;;;;;5099752;28;20027;-77
2022/03/27 08:41:26;;;;;;;24.50;9.35;;;13.50;56.40;;;;;;5103382;28;20023;-77
2022/03/27 08:43:58;;;;;;;38.97;9.80;;;13.50;57.10;;;;;;5095047;28;20049;-78
2022/03/27 08:46:26;;;;;;;25.92;9.98;;;13.50;56.70;;;;;;5111985;27;20118;-77
2022/03/27 08:48:53;;;;;;;27.33;10.27;;;13.60;56.70;;;;;;5099995;28;20028;-77
2022/03/27 08:51:33;;;;;;;23.13;8.90;;;13.50;56.70;;;;;;5095595;28;20020;-77
2022/03/27 08:54:04;;;;;;;21.75;8.98;;;13.60;56.30;;;;;;5099821;28;20023;-77
2022/03/27 08:56:32;;;;;;;38.03;9.65;;;13.60;56.50;;;;;;5100690;28;20081;-77
2022/03/27 08:59:04;;;;;;;24.00;9.70;;;13.60;55.90;;;;;;5096564;28;20133;-78
2022/03/27 09:01:30;;;;;;;35.60;9.57;;;13.60;56.10;;;;;;5105013;28;20027;-77
2022/03/27 09:03:56;;;;;;;26.38;10.57;;;13.60;56.10;;;;;;5097221;28;20027;-77
2022/03/27 09:06:22;;;;;;;24.42;8.65;;;13.70;56.20;;;;;;5100813;28;20096;-77
2022/03/27 09:08:50;;;;;;;20.55;9.25;;;13.70;55.80;;;;;;5091772;28;20024;-77
2022/03/27 09:11:17;;;;;;;28.88;9.65;;;13.70;55.40;;;;;;5095045;28;20606;-78
2022/03/27 09:13:48;;;;;;;25.95;9.70;;;13.70;55.70;;;;;;5089268;28;20047;-77
2022/03/27 09:16:14;;;;;;;24.23;8.95;;;13.70;55.50;;;;;;5097943;28;20031;-77
2022/03/27 09:18:52;;;;;;;31.42;9.57;;;13.70;55.80;;;;;;5106304;28;20020;-78
2022/03/27 09:21:21;;;;;;;29.95;10.70;;;13.80;55.20;;;;;;5095816;28;20148;-77
2022/03/27 09:23:54;;;;;;;22.48;9.82;;;13.90;54.90;;;;;;5090767;28;20020;-78
2022/03/27 09:26:21;;;;;;;21.52;8.93;;;13.90;54.80;;;;;;5099964;28;20114;-78
2022/03/27 09:28:53;;;;;;;26.73;10.35;;;13.90;54.60;;;;;;5100284;28;20094;-77
2022/03/27 09:31:19;;;;;;;25.70;9.55;;;13.90;54.30;;;;;;5109394;27;20460;-77
2022/03/27 09:33:53;;;;;;;32.20;10.77;;;13.90;54.80;;;;;;5104576;27;20035;-77
2022/03/27 09:36:25;;;;;;;25.13;9.65;;;14.00;54.20;;;;;;5090622;28;20672;-78
2022/03/27 09:39:17;;;;;;;26.92;9.60;;;14.00;53.20;;;;;;5094173;28;20027;-78
2022/03/27 09:41:44;;;;;;;29.52;9.80;;;14.00;53.60;;;;;;5094555;28;20365;-78
2022/03/27 09:44:17;;;;;;;31.00;9.73;;;14.10;53.50;;;;;;5106457;28;20039;-78
2022/03/27 09:46:58;;;;;;;26.42;11.02;;;14.20;53.30;;;;;;5100311;27;20480;-78
2022/03/27 09:49:46;;;;;;;26.70;10.10;;;14.20;53.50;;;;;;5112917;28;20107;-77
2022/03/27 09:52:20;;;;;;;25.02;10.27;;;14.20;53.30;;;;;;5090858;28;20358;-78
2022/03/27 09:54:58;;;;;;;27.25;11.02;;;14.30;53.50;;;;;;5112691;28;20031;-78
2022/03/27 09:57:38;;;;;;;28.52;9.90;;;14.30;52.90;;;;;;5113564;28;20028;-78
2022/03/27 10:00:14;;;;;;;;;;;14.30;53.40;;;;;;5094567;28;20028;-78
2022/03/27 10:02:41;;;;;;;19.50;8.48;;;14.50;52.60;;;;;;5107956;28;19907;-78
2022/03/27 10:05:11;;;;;;;32.60;11.98;;;14.60;52.60;;;;;;5112955;28;20024;-78
2022/03/27 10:07:52;;;;;;;30.10;11.02;;;14.60;52.10;;;;;;5111811;28;20028;-78
2022/03/27 10:10:20;;;;;;;25.77;10.68;;;14.60;51.40;;;;;;5112541;28;20553;-78
2022/03/27 10:12:48;;;;;;;35.70;11.85;;;14.60;49.10;;;;;;5108412;28;20081;-77
2022/03/27 10:15:19;;;;;;;38.75;13.55;;;14.60;49.60;;;;;;5102168;28;20042;-78
2022/03/27 10:18:17;;;;;;;29.35;11.48;;;14.70;49.00;;;;;;5111212;27;20108;-78
2022/03/27 10:20:46;;;;;;;29.33;11.85;;;14.70;49.70;;;;;;5093500;28;20716;-78
2022/03/27 10:23:23;;;;;;;34.53;12.40;;;14.70;49.60;;;;;;5093654;28;20110;-77
2022/03/27 10:25:54;;;;;;;31.85;11.95;;;14.70;50.60;;;;;;5112436;28;20624;-77
2022/03/27 10:28:21;;;;;;;38.95;14.57;;;14.80;51.20;;;;;;5108165;28;20024;-77
2022/03/27 10:30:51;;;;;;;33.55;12.02;;;14.80;50.20;;;;;;5091569;28;20420;-78
2022/03/27 10:33:18;;;;;;;30.73;14.57;;;14.80;49.30;;;;;;5106594;27;20023;-77
2022/03/27 10:35:58;;;;;;;41.08;16.27;;;14.80;49.90;;;;;;5108031;28;20553;-77
2022/03/27 10:38:57;;;;;;;31.33;13.52;;;14.80;49.10;;;;;;5098172;28;20036;-78
2022/03/27 10:41:57;;;;;;;25.65;11.07;;;14.90;49.00;;;;;;5095502;28;20413;-78
2022/03/27 10:44:28;;;;;;;33.65;12.88;;;15.00;49.20;;;;;;5091927;28;20549;-78
2022/03/27 10:47:17;;;;;;;33.20;13.00;;;15.00;49.00;;;;;;5108160;27;20365;-78
2022/03/27 10:50:04;;;;;;;33.38;13.05;;;15.00;48.40;;;;;;5133037;27;20023;-78
2022/03/27 10:52:50;;;;;;;32.05;16.30;;;15.10;48.90;;;;;;5112057;27;20031;-78
2022/03/27 10:55:17;;;;;;;36.72;14.73;;;15.10;47.70;;;;;;5111433;28;20026;-79
2022/03/27 10:57:49;;;;;;;37.45;13.95;;;15.10;48.10;;;;;;5093624;28;20035;-78
2022/03/27 11:00:35;;;;;;;29.52;12.27;;;15.10;47.00;;;;;;5112088;28;20040;-78
2022/03/27 11:03:01;;;;;;;35.25;14.15;;;15.20;46.30;;;;;;5110627;28;20092;-78
2022/03/27 11:05:30;;;;;;;34.10;12.63;;;15.20;46.40;;;;;;5099919;28;20495;-77
2022/03/27 11:08:17;;;;;;;37.85;13.13;;;15.20;47.50;;;;;;5106959;28;20032;-77
2022/03/27 11:10:51;;;;;;;38.67;13.93;;;15.20;48.40;;;;;;5099754;28;20085;-76
2022/03/27 11:13:26;;;;;;;31.92;13.73;;;15.20;48.40;;;;;;5099795;28;20024;-76
2022/03/27 11:16:07;;;;;;;35.47;12.15;;;15.20;48.40;;;;;;5103115;28;20024;-76
2022/03/27 11:18:55;;;;;;;32.03;11.98;;;15.30;46.80;;;;;;5099154;28;20130;-76
2022/03/27 11:21:27;;;;;;;33.40;13.00;;;15.30;46.60;;;;;;5110857;28;20034;-77
2022/03/27 11:24:02;;;;;;;30.58;12.57;;;15.30;45.80;;;;;;5113940;28;20488;-76
2022/03/27 11:26:29;;;;;;;31.55;13.77;;;15.30;46.20;;;;;;5113839;28;20016;-78
2022/03/27 11:29:04;;;;;;;30.25;11.98;;;15.40;44.90;;;;;;5111947;28;20027;-77
2022/03/27 11:31:37;;;;;;;33.33;12.35;;;15.40;45.30;;;;;;5111626;28;20019;-76
2022/03/27 11:34:12;;;;;;;28.35;12.68;;;15.40;46.00;;;;;;5113037;27;20023;-76
2022/03/27 11:37:23;;;;;;;30.33;12.55;;;15.50;44.90;;;;;;5110162;28;20134;-76
2022/03/27 11:39:50;;;;;;;23.95;10.00;;;15.40;45.50;;;;;;5106839;28;20106;-76
2022/03/27 11:42:28;;;;;;;32.00;13.40;;;15.40;47.90;;;;;;5110037;28;20034;-76
2022/03/27 11:45:20;;;;;;;34.92;13.38;;;15.50;47.30;;;;;;5110507;28;20070;-77
2022/03/27 11:47:51;;;;;;;31.20;13.98;;;15.50;46.90;;;;;;5117046;27;20438;-76
2022/03/27 11:50:28;;;;;;;32.50;13.35;;;15.60;45.90;;;;;;5130564;27;20023;-77
2022/03/27 11:52:54;;;;;;;29.15;12.00;;;15.60;46.30;;;;;;5125834;27;20015;-77
2022/03/27 11:55:20;;;;;;;30.95;11.57;;;15.60;47.00;;;;;;5110244;28;20492;-78
2022/03/27 11:57:46;;;;;;;35.15;12.57;;;15.70;46.50;;;;;;5108951;28;20515;-76
2022/03/27 12:00:14;;;;;;;30.75;12.60;;;15.70;45.40;;;;;;5111046;28;20051;-75
2022/03/27 12:02:44;;;;;;;30.23;12.43;;;15.80;47.40;;;;;;5112859;28;20053;-75
2022/03/27 12:05:13;;;;;;;38.63;14.73;;;15.70;46.70;;;;;;5110972;28;20149;-76
2022/03/27 12:07:56;;;;;;;30.90;13.93;;;15.80;47.70;;;;;;5109899;28;20464;-75
2022/03/27 12:10:23;;;;;;;28.08;11.10;;;15.90;46.60;;;;;;5108887;28;20261;-76
2022/03/27 12:13:00;;;;;;;36.47;12.73;;;16.00;47.10;;;;;;5108637;28;20188;-75
2022/03/27 12:15:40;;;;;;;35.13;11.80;;;16.00;45.20;;;;;;5109160;28;20321;-75
2022/03/27 12:18:06;;;;;;;28.48;11.70;;;16.00;45.60;;;;;;5108394;27;20070;-75
2022/03/27 12:20:44;;;;;;;32.35;11.50;;;16.00;46.60;;;;;;5109692;28;20085;-75
2022/03/27 12:23:34;;;;;;;30.42;12.63;;;16.10;46.30;;;;;;5108910;28;20434;-75
2022/03/27 12:29:40;;;;;;;31.17;11.45;;;16.20;45.20;;;;;;5110095;28;20020;-75
2022/03/27 12:31:57;;;;;;;;;;;16.20;42.60;;;;;;5110473;28;20119;-76
2022/03/27 12:34:23;;;;;;;32.55;12.75;;;16.30;42.90;;;;;;5127297;27;19911;-75
2022/03/27 12:37:18;;;;;;;31.05;11.70;;;16.20;44.00;;;;;;5130557;27;20026;-75
2022/03/27 12:39:47;;;;;;;29.23;12.93;;;16.30;44.00;;;;;;5120180;27;20039;-75
2022/03/27 12:42:39;;;;;;;34.42;12.05;;;16.30;43.00;;;;;;5109140;28;20020;-75
2022/03/27 12:45:14;;;;;;;30.20;11.32;;;16.30;44.40;;;;;;5108802;28;20035;-75
2022/03/27 12:47:41;;;;;;;29.75;10.88;;;16.30;44.60;;;;;;5110896;27;20035;-75
2022/03/27 12:50:13;;;;;;;35.95;12.40;;;16.40;43.80;;;;;;5129403;27;20023;-75
2022/03/27 12:52:56;;;;;;;32.17;12.60;;;16.50;43.90;;;;;;5121802;27;20063;-75
2022/03/27 12:55:25;;;;;;;32.10;11.38;;;16.50;44.40;;;;;;5105782;28;20062;-75
2022/03/27 12:57:55;;;;;;;26.67;9.70;;;16.50;42.70;;;;;;5109877;28;20093;-75
2022/03/27 13:00:24;;;;;;;27.27;10.52;;;16.50;43.50;;;;;;5109868;28;20036;-76
2022/03/27 13:02:50;;;;;;;41.03;13.93;;;16.50;43.30;;;;;;5111883;27;20040;-75
2022/03/27 13:05:27;;;;;;;29.67;10.73;;;16.50;41.50;;;;;;5129823;27;20084;-75
2022/03/27 13:07:57;;;;;;;37.08;12.10;;;16.50;41.80;;;;;;5130450;27;20027;-75
2022/03/27 13:10:24;;;;;;;22.65;9.95;;;16.50;42.30;;;;;;5129839;27;20043;-75
2022/03/27 13:13:07;;;;;;;29.80;11.38;;;16.60;41.80;;;;;;5129644;28;20030;-77
2022/03/27 13:15:38;;;;;;;27.23;12.27;;;16.50;41.20;;;;;;5130364;28;20110;-75
2022/03/27 13:18:05;;;;;;;25.58;10.30;;;16.50;40.70;;;;;;5125245;28;20039;-75
2022/03/27 13:20:31;;;;;;;28.65;12.70;;;16.50;42.00;;;;;;5109286;28;20293;-75
2022/03/27 13:22:56;;;;;;;33.53;11.82;;;16.50;41.50;;;;;;5109060;28;20464;-77
2022/03/27 13:25:22;;;;;;;37.28;12.00;;;16.50;42.30;;;;;;5108866;28;20497;-76
2022/03/27 13:27:47;;;;;;;28.58;12.48;;;16.50;40.90;;;;;;5109276;28;20023;-76
2022/03/27 13:30:13;;;;;;;26.77;9.80;;;16.40;41.00;;;;;;5109052;28;20421;-76
2022/03/27 13:32:39;;;;;;;38.10;13.63;;;16.50;41.20;;;;;;5109059;28;20579;-76
2022/03/27 13:35:05;;;;;;;28.60;10.95;;;16.50;41.40;;;;;;5108692;28;20118;-76